CMA CGM Homere — MQBL6 — position and weather

sailwx.info

Track history (hours):
 
Tides and Currents Weather Stations Pressure Air Temp Water Temp Dewpoint Dewpoint Depression Visibility Wind Speed Wind Dir Waves Ship Positions

CMA CGM Homere

Last reported at 2017-May-23 11:27 UTC. Time now 2017-May-23 16:58 UTC.
Position N 36°08' W 007°30'.

Length 170 m; draft 6 m.

Type: Cargo ship. MMSI: 235052314.

Date/timePositionNaut miles runAvg speedWind from/ knotsBaromVisibWave heightAir tempDewpointWater temp
2017-May-23 11:27N 36°08' W 007°30'5 8.4
2017-May-23 10:53N 36°08' W 007°36'3 8.7
2017-May-23 10:30N 36°09' W 007°40'5 9.4
2017-May-23 10:00N 36°11' W 007°46'510.1
2017-May-23 09:30N 36°12' W 007°52'510.6
2017-May-23 09:00N 36°14' W 007°58'510.9
2017-May-23 08:30N 36°15' W 008°04'612.0
2017-May-23 08:00N 36°17' W 008°12'713.5
2017-May-23 07:30N 36°19' W 008°20'713.3
2017-May-23 07:00N 36°21' W 008°28'1213.5
2017-May-23 06:08N 36°24' W 008°42'1413.4
2017-May-23 05:07N 36°28' W 008°58'113.2
2017-May-23 05:00N 36°28' W 008°60'713.2
2017-May-23 04:27N 36°30' W 009°08'613.1
2017-May-23 03:59N 36°32' W 009°15'613.0
2017-May-23 03:30N 36°37' W 009°21'713.7
2017-May-23 03:00N 36°41' W 009°27'713.8
2017-May-23 02:30N 36°47' W 009°33'713.8
2017-May-23 02:00N 36°53' W 009°35'713.9
2017-May-23 01:31N 37°00' W 009°37'714.0
2017-May-23 01:00N 37°07' W 009°39'713.8
2017-May-23 00:30N 37°14' W 009°41'713.8
2017-May-23 00:01N 37°20' W 009°43'714.1
2017-May-22 23:30N 37°27' W 009°45'714.2
2017-May-22 23:01N 37°34' W 009°47'714.2
2017-May-22 22:31N 37°41' W 009°49'714.5
2017-May-22 22:01N 37°48' W 009°51'714.4
2017-May-22 21:30N 37°55' W 009°53'714.2
2017-May-22 21:01N 38°02' W 009°55'714.2
2017-May-22 20:30N 38°09' W 009°57'714.3
2017-May-22 20:01N 38°16' W 009°59'714.2
2017-May-22 19:31N 38°23' W 010°01'714.1
2017-May-22 19:00N 38°30' W 010°03'714.0
2017-May-22 18:30N 38°37' W 010°05'714.2
2017-May-22 18:00N 38°44' W 010°07'714.4
2017-May-22 17:31N 38°51' W 010°07'714.5
2017-May-22 17:01N 38°58' W 010°07'714.3
2017-May-22 16:30N 39°05' W 010°07'714.6
2017-May-22 16:00N 39°12' W 010°07'714.3
2017-May-22 15:30N 39°20' W 010°07'714.0
2017-May-22 14:58N 39°27' W 010°07'1414.1
2017-May-22 14:00N 39°41' W 010°07'714.1
2017-May-22 13:30N 39°48' W 010°06'714.0
2017-May-22 13:00N 39°55' W 010°06'714.0
2017-May-22 12:30N 40°02' W 010°07'714.2
2017-May-22 11:59N 40°09' W 010°07'817.5
2017-May-22 11:30N 40°18' W 010°07'918.0
2017-May-22 11:00N 40°27' W 010°07'917.7
2017-May-22 10:30N 40°35' W 010°06'714.6
2017-May-22 10:00N 40°43' W 010°07'713.1
2017-May-22 09:30N 40°49' W 010°07'713.2
2017-May-22 08:59N 40°56' W 010°07'613.1
2017-May-22 08:31N 41°02' W 010°07'1913.3
2017-May-22 07:07N 41°21' W 010°07'113.2
2017-May-22 07:00N 41°22' W 010°07'20912.6
2017-May-21 14:21N 44°46' W 009°01'17812.4
2017-May-20 23:58N 47°23' W 007°01'1313.1
2017-May-20 22:58N 47°34' W 006°51'1412.9
2017-May-20 21:54N 47°46' W 006°41'1312.8
2017-May-20 20:54N 47°57' W 006°31'1213.0
2017-May-20 19:58N 48°08' W 006°24'15411.5
2017-May-20 06:36N 49°48' W 003°26'111.4
2017-May-20 06:30N 49°48' W 003°24'611.4
2017-May-20 06:00N 49°51' W 003°17'811.3
2017-May-20 05:16N 49°55' W 003°05'311.1
2017-May-20 05:01N 49°57' W 003°02'511.0
2017-May-20 04:31N 49°59' W 002°54'610.9
2017-May-20 04:00N 50°01' W 002°46'510.8
2017-May-20 03:31N 50°02' W 002°38'8710.7
2017-May-19 19:22N 50°24' W 000°26'1113.1
2017-May-19 18:31N 50°26' W 000°09'215.0
2017-May-19 18:23N 50°27' W 000°06'615.1
2017-May-19 18:00N 50°29' E 000°02'714.9
2017-May-19 17:30N 50°31' E 000°13'714.9
2017-May-19 17:00N 50°33' E 000°25'714.6
2017-May-19 16:30N 50°35' E 000°35'814.5
2017-May-19 15:59N 50°40' E 000°45'714.3
2017-May-19 15:30N 50°43' E 000°54'714.1
2017-May-19 14:59N 50°48' E 001°04'1313.6
2017-May-19 14:00N 50°56' E 001°20'814.2
2017-May-19 13:28N 51°02' E 001°28'614.1
2017-May-19 13:00N 51°06' E 001°36'714.5
2017-May-19 12:30N 51°12' E 001°44'714.5
2017-May-19 12:00N 51°17' E 001°51'714.6
2017-May-19 11:30N 51°23' E 001°57'611.6
2017-May-19 11:00N 51°24' E 002°07'713.7
2017-May-19 10:31N 51°21' E 002°16'714.0
2017-May-19 10:00N 51°23' E 002°28'714.0
2017-May-19 09:30N 51°23' E 002°39'611.8
2017-May-19 09:00N 51°22' E 002°48'815.1
2017-May-19 08:30N 51°24' E 002°60'815.3
2017-May-19 08:01N 51°24' E 003°12'815.6
2017-May-19 07:31N 51°25' E 003°24'714.5
2017-May-19 07:00N 51°26' E 003°36'3 6.1
2017-May-19 06:30N 51°26' E 003°41'612.4
2017-May-19 06:01N 51°22' E 003°47'510.9
2017-May-19 05:30N 51°22' E 003°56'5 9.8
2017-May-19 05:00N 51°26' E 004°01'510.6
2017-May-19 04:31N 51°22' E 004°07'4 8.2
2017-May-19 04:00N 51°22' E 004°13'4 8.4
2017-May-19 03:30N 51°18' E 004°16'1 1.4
2017-May-19 02:59N 51°18' E 004°16'0 0.0
2017-May-19 02:23N 51°18' E 004°16'0 0.0
2017-May-19 01:59N 51°18' E 004°16'0 0.0
2017-May-19 01:29N 51°18' E 004°16'0 0.0
2017-May-19 00:59N 51°18' E 004°16'0 0.0
2017-May-19 00:29N 51°18' E 004°16'0 0.0
2017-May-18 23:59N 51°18' E 004°16'0 0.0
2017-May-18 23:29N 51°18' E 004°16'0 0.0
2017-May-18 22:59N 51°18' E 004°16'0 0.0
2017-May-18 22:29N 51°18' E 004°16'0 0.0
2017-May-18 21:59N 51°18' E 004°16'0 0.0
2017-May-18 21:29N 51°18' E 004°16'0 0.0
2017-May-18 20:59N 51°18' E 004°16'0 0.0
2017-May-18 20:29N 51°18' E 004°16'0 0.0
2017-May-18 19:59N 51°18' E 004°16'0 0.0
2017-May-18 19:29N 51°18' E 004°16'0 0.0
2017-May-18 18:59N 51°18' E 004°16'0 0.0
2017-May-18 18:29N 51°18' E 004°16'0 0.0
2017-May-18 17:59N 51°18' E 004°16'0 0.0
2017-May-18 17:29N 51°18' E 004°16'0 0.0
2017-May-18 16:53N 51°18' E 004°16'0 0.0
2017-May-18 16:29N 51°18' E 004°16'0 0.0
2017-May-18 15:59N 51°18' E 004°16'0 0.0
2017-May-18 15:29N 51°18' E 004°16'0 0.0
2017-May-18 14:53N 51°18' E 004°16'0 0.0
2017-May-18 13:59N 51°18' E 004°16'0 0.0
2017-May-18 13:29N 51°18' E 004°16'0 0.0
2017-May-18 12:59N 51°18' E 004°16'0 0.0
2017-May-18 12:29N 51°18' E 004°16'0 0.0
2017-May-18 12:00N 51°18' E 004°16'2 4.0
2017-May-18 11:30N 51°20' E 004°16'4 8.5
2017-May-18 11:00N 51°23' E 004°13'510.5
2017-May-18 10:30N 51°22' E 004°05'510.3
2017-May-18 10:00N 51°26' E 003°59'611.7
2017-May-18 09:30N 51°21' E 003°54'611.1
2017-May-18 09:00N 51°22' E 003°45'611.2
2017-May-18 08:31N 51°26' E 003°39'3 6.9
2017-May-18 08:00N 51°27' E 003°34'510.2
2017-May-18 07:30N 51°30' E 003°28'510.3
2017-May-18 07:00N 51°35' E 003°24'611.4
2017-May-18 06:30N 51°39' E 003°19'7 7.6
2017-May-18 05:38N 51°45' E 003°14'2 5.7
2017-May-18 05:16N 51°47' E 003°17'0 0.9
2017-May-18 04:51N 51°47' E 003°17'0 0.0
2017-May-18 04:25N 51°47' E 003°17'0 0.1
2017-May-18 03:39N 51°47' E 003°17'0 0.1
2017-May-18 03:24N 51°47' E 003°17'0 0.1
2017-May-18 02:59N 51°47' E 003°17'0 0.0
2017-May-18 02:24N 51°47' E 003°17'0 0.1
2017-May-18 02:00N 51°47' E 003°17'0 0.0
2017-May-18 01:30N 51°47' E 003°17'0 0.1
2017-May-18 00:54N 51°47' E 003°17'0 0.0
2017-May-18 00:21N 51°47' E 003°17'0 0.0
2017-May-17 23:57N 51°47' E 003°17'0 0.1
2017-May-17 23:30N 51°47' E 003°17'0 0.5
2017-May-17 22:55N 51°46' E 003°17'0 0.7
2017-May-17 22:29N 51°47' E 003°17'1210.6
2017-May-17 21:22N 51°58' E 003°21'412.3
2017-May-17 21:00N 52°03' E 003°24'611.7
2017-May-17 20:30N 52°03' E 003°33'714.7
2017-May-17 20:01N 52°03' E 003°45'611.8
2017-May-17 19:30N 52°02' E 003°54'611.9
2017-May-17 19:00N 51°59' E 004°03'1 2.8
2017-May-17 18:31N 51°58' E 004°01'2 3.7
2017-May-17 17:59N 51°57' E 003°59'0 0.3
2017-May-17 17:30N 51°57' E 003°59'0 0.0
2017-May-17 17:00N 51°57' E 003°59'0 0.0
2017-May-17 16:30N 51°57' E 003°59'0 0.0
2017-May-17 16:00N 51°57' E 003°59'0 0.0
2017-May-17 15:30N 51°57' E 003°59'0 0.0
2017-May-17 15:00N 51°57' E 003°59'0 0.0
2017-May-17 13:59N 51°57' E 003°59'0 0.0
2017-May-17 13:28N 51°57' E 003°59'0 0.0
2017-May-17 12:58N 51°57' E 003°59'0 0.0
2017-May-17 12:28N 51°57' E 003°59'0 0.0
2017-May-17 11:58N 51°57' E 003°59'0 0.0
2017-May-17 11:28N 51°57' E 003°59'0 0.0
2017-May-17 10:58N 51°57' E 003°59'0 0.0
2017-May-17 10:28N 51°57' E 003°59'0 0.0
2017-May-17 09:58N 51°57' E 003°59'0 0.0
2017-May-17 09:28N 51°57' E 003°59'0 0.0
2017-May-17 08:58N 51°57' E 003°59'0 0.0
2017-May-17 08:28N 51°57' E 003°59'0 0.0
2017-May-17 07:58N 51°57' E 003°59'0 0.0
2017-May-17 07:28N 51°57' E 003°59'0 0.0
2017-May-17 06:58N 51°57' E 003°59'0 0.0
2017-May-17 06:28N 51°57' E 003°59'0 0.0
2017-May-17 05:58N 51°57' E 003°59'0 0.0
2017-May-17 05:28N 51°57' E 003°59'0 0.0
2017-May-17 04:59N 51°57' E 003°59'0 0.0
2017-May-17 04:28N 51°57' E 003°59'0 0.0
2017-May-17 03:58N 51°57' E 003°59'0 0.0
2017-May-17 03:28N 51°57' E 003°59'0 0.0
2017-May-17 02:58N 51°57' E 003°59'0 0.0
2017-May-17 02:28N 51°57' E 003°59'0 0.0
2017-May-17 01:58N 51°57' E 003°59'0 0.0
2017-May-17 01:28N 51°57' E 003°59'0 0.0
2017-May-17 00:55N 51°57' E 003°59'0 0.0
2017-May-17 00:28N 51°57' E 003°59'0 0.0
2017-May-16 23:58N 51°57' E 003°59'0 0.0
2017-May-16 23:28N 51°57' E 003°59'0 0.0
2017-May-16 22:58N 51°57' E 003°59'0 0.0
2017-May-16 22:28N 51°57' E 003°59'0 0.0
2017-May-16 21:58N 51°57' E 003°59'0 0.0
2017-May-16 21:28N 51°57' E 003°59'0 0.0
2017-May-16 20:58N 51°57' E 003°59'0 0.3
2017-May-16 20:31N 51°57' E 003°60'2 3.7
2017-May-16 20:01N 51°59' E 004°01'2 3.9
2017-May-16 19:30N 51°59' E 004°04'4 7.5
2017-May-16 19:00N 52°00' E 003°59'611.6
2017-May-16 18:30N 52°00' E 003°49'4 8.3
2017-May-16 18:00N 51°58' E 003°44'2 3.1
2017-May-16 17:29N 51°56' E 003°43'0 0.0
2017-May-16 16:59N 51°56' E 003°43'0 0.0
2017-May-16 16:29N 51°56' E 003°43'0 0.0
2017-May-16 15:59N 51°56' E 003°43'0 0.0
2017-May-16 15:29N 51°56' E 003°43'0 0.1
2017-May-16 14:59N 51°56' E 003°43'0 0.1
2017-May-16 14:29N 51°56' E 003°43'0 0.1
2017-May-16 13:20N 51°56' E 003°43'0 0.0
2017-May-16 12:50N 51°56' E 003°43'0 0.0
2017-May-16 12:26N 51°56' E 003°43'0 0.0
2017-May-16 11:41N 51°56' E 003°43'0 0.2
2017-May-16 11:29N 51°56' E 003°43'0 0.0
2017-May-16 10:59N 51°56' E 003°43'0 0.1
2017-May-16 10:29N 51°56' E 003°43'0 0.2
2017-May-16 09:59N 51°56' E 003°43'0 0.2
2017-May-16 09:29N 51°56' E 003°43'0 0.1
2017-May-16 08:53N 51°56' E 003°43'0 0.0
2017-May-16 08:29N 51°56' E 003°43'0 0.0
2017-May-16 07:53N 51°56' E 003°43'0 0.0
2017-May-16 07:29N 51°56' E 003°43'0 0.0
2017-May-16 06:59N 51°56' E 003°43'0 0.0
2017-May-16 06:29N 51°56' E 003°43'0 0.0
2017-May-16 05:59N 51°56' E 003°43'0 0.0
2017-May-16 05:29N 51°56' E 003°43'0 0.0
2017-May-16 04:59N 51°56' E 003°43'0 0.0
2017-May-16 04:29N 51°56' E 003°43'0 0.0
2017-May-16 03:59N 51°56' E 003°43'0 0.0
2017-May-16 03:29N 51°56' E 003°43'0 0.0
2017-May-16 02:59N 51°56' E 003°43'0 0.1
2017-May-16 02:26N 51°56' E 003°43'0 0.2
2017-May-16 01:56N 51°56' E 003°43'0 0.3
2017-May-16 01:29N 51°56' E 003°43'0 0.0
2017-May-16 00:59N 51°56' E 003°43'0 0.0
2017-May-16 00:29N 51°56' E 003°43'0 0.0
2017-May-15 23:59N 51°56' E 003°43'0 0.0
2017-May-15 23:29N 51°56' E 003°43'0 0.0
2017-May-15 22:59N 51°56' E 003°43'0 0.0
2017-May-15 22:29N 51°56' E 003°43'0 0.1
2017-May-15 21:56N 51°56' E 003°43'0 0.1
2017-May-15 21:29N 51°56' E 003°43'0 0.1
2017-May-15 20:59N 51°56' E 003°43'0 0.0
2017-May-15 20:26N 51°56' E 003°43'0 0.0
2017-May-15 19:59N 51°56' E 003°43'0 0.0
2017-May-15 19:29N 51°56' E 003°43'0 0.0
2017-May-15 18:53N 51°56' E 003°43'0 0.1
2017-May-15 18:26N 51°56' E 003°43'0 0.0
2017-May-15 17:59N 51°56' E 003°43'0 0.0
2017-May-15 17:23N 51°56' E 003°43'0 0.0
2017-May-15 16:59N 51°56' E 003°43'0 0.0
2017-May-15 16:26N 51°56' E 003°43'0 0.0
2017-May-15 15:59N 51°56' E 003°43'0 0.0
2017-May-15 15:29N 51°56' E 003°43'0 0.0
2017-May-15 14:59N 51°56' E 003°43'0 0.1
2017-May-15 13:56N 51°56' E 003°43'0 0.3
2017-May-15 13:29N 51°56' E 003°43'0 0.1
2017-May-15 12:59N 51°56' E 003°43'0 0.0
2017-May-15 12:23N 51°56' E 003°43'0 0.0
2017-May-15 11:59N 51°56' E 003°43'0 0.0
2017-May-15 11:29N 51°56' E 003°43'0 0.0
2017-May-15 10:53N 51°56' E 003°43'0 0.0
2017-May-15 10:26N 51°56' E 003°43'0 0.0
2017-May-15 09:59N 51°56' E 003°43'0 0.0
2017-May-15 09:29N 51°56' E 003°43'0 0.2
2017-May-15 08:59N 51°56' E 003°43'0 0.2
2017-May-15 08:29N 51°56' E 003°43'0 0.0
2017-May-15 07:59N 51°56' E 003°43'0 0.0
2017-May-15 07:29N 51°56' E 003°43'0 0.0
2017-May-15 06:56N 51°56' E 003°43'0 0.0
2017-May-15 06:29N 51°56' E 003°43'0 0.0
2017-May-15 05:59N 51°56' E 003°43'0 0.0
2017-May-15 05:29N 51°56' E 003°43'0 0.0
2017-May-15 04:59N 51°56' E 003°43'0 0.0
2017-May-15 04:29N 51°56' E 003°43'0 0.0
2017-May-15 03:59N 51°56' E 003°43'0 0.0
2017-May-15 03:26N 51°56' E 003°43'0 0.0
2017-May-15 02:59N 51°56' E 003°43'0 0.0
2017-May-15 02:29N 51°56' E 003°43'0 0.0
2017-May-15 01:59N 51°56' E 003°43'0 0.2
2017-May-15 01:29N 51°56' E 003°43'0 0.2
2017-May-15 00:56N 51°56' E 003°43'0 0.1
2017-May-15 00:29N 51°56' E 003°43'0 0.0
2017-May-14 23:59N 51°56' E 003°43'0 0.0
2017-May-14 23:29N 51°56' E 003°43'0 0.0
2017-May-14 22:59N 51°56' E 003°43'0 0.0
2017-May-14 22:26N 51°56' E 003°43'0 0.1
2017-May-14 21:59N 51°56' E 003°43'0 0.3
2017-May-14 21:29N 51°56' E 003°43'0 0.2
2017-May-14 20:59N 51°56' E 003°43'0 0.1
2017-May-14 20:29N 51°56' E 003°43'0 0.0
2017-May-14 19:59N 51°56' E 003°43'0 0.0
2017-May-14 19:29N 51°56' E 003°43'0 0.0
2017-May-14 18:59N 51°56' E 003°43'0 0.0
2017-May-14 18:29N 51°56' E 003°43'0 0.0
2017-May-14 17:59N 51°56' E 003°43'0 0.0
2017-May-14 17:29N 51°56' E 003°43'0 0.0
2017-May-14 16:56N 51°56' E 003°43'0 0.0
2017-May-14 16:29N 51°56' E 003°43'0 0.0
2017-May-14 15:59N 51°56' E 003°43'0 0.0
2017-May-14 15:29N 51°56' E 003°43'0 0.0
2017-May-14 14:59N 51°56' E 003°43'0 0.0
2017-May-14 14:29N 51°56' E 003°43'0 0.0
2017-May-14 13:26N 51°56' E 003°43'0 0.0
2017-May-14 12:59N 51°56' E 003°43'0 0.1
2017-May-14 12:26N 51°56' E 003°43'0 0.3
2017-May-14 11:59N 51°56' E 003°43'0 0.3
2017-May-14 11:29N 51°56' E 003°43'0 0.0
2017-May-14 10:56N 51°56' E 003°43'0 0.0
2017-May-14 10:29N 51°56' E 003°43'0 0.0
2017-May-14 09:59N 51°56' E 003°43'0 0.1
2017-May-14 09:29N 51°56' E 003°43'0 0.2
2017-May-14 08:53N 51°56' E 003°43'0 0.2
2017-May-14 08:29N 51°56' E 003°43'0 0.0
2017-May-14 07:56N 51°56' E 003°43'0 0.0
2017-May-14 07:29N 51°56' E 003°43'0 0.0
2017-May-14 06:59N 51°56' E 003°43'0 0.0
2017-May-14 06:17N 51°56' E 003°43'0 0.0
2017-May-14 05:59N 51°56' E 003°43'0 0.0
2017-May-14 05:26N 51°56' E 003°43'0 0.0
2017-May-14 04:56N 51°56' E 003°43'0 0.0
2017-May-14 04:29N 51°56' E 003°43'0 0.0
2017-May-14 03:56N 51°56' E 003°43'0 0.0
2017-May-14 03:29N 51°56' E 003°43'0 0.0
2017-May-14 02:53N 51°56' E 003°43'0 0.0
2017-May-14 02:29N 51°56' E 003°43'0 0.0
2017-May-14 01:59N 51°56' E 003°43'0 0.1
2017-May-14 01:29N 51°56' E 003°43'0 0.3
2017-May-14 00:56N 51°56' E 003°43'0 0.1
2017-May-14 00:29N 51°56' E 003°43'0 0.0
2017-May-13 23:56N 51°56' E 003°43'0 0.0
2017-May-13 23:26N 51°56' E 003°43'0 0.1
2017-May-13 22:56N 51°56' E 003°43'0 0.0
2017-May-13 22:29N 51°56' E 003°43'0 0.0
2017-May-13 21:59N 51°56' E 003°43'0 0.1
2017-May-13 21:29N 51°56' E 003°43'0 0.2
2017-May-13 20:59N 51°56' E 003°43'0 0.2
2017-May-13 20:26N 51°56' E 003°43'0 0.1
2017-May-13 19:59N 51°56' E 003°43'0 0.0
2017-May-13 19:29N 51°56' E 003°43'0 0.0
2017-May-13 18:59N 51°56' E 003°43'0 0.0
2017-May-13 18:29N 51°56' E 003°43'0 0.0
2017-May-13 17:56N 51°56' E 003°43'0 0.0
2017-May-13 17:29N 51°56' E 003°43'0 0.0
2017-May-13 16:59N 51°56' E 003°43'0 0.0
2017-May-13 16:29N 51°56' E 003°43'0 0.0
2017-May-13 15:59N 51°56' E 003°43'0 0.0
2017-May-13 15:29N 51°56' E 003°43'0 0.0
2017-May-13 14:59N 51°56' E 003°43'0 0.0
2017-May-13 14:29N 51°56' E 003°43'0 0.0
2017-May-13 13:29N 51°56' E 003°43'0 0.3
2017-May-13 12:56N 51°56' E 003°43'0 0.2
2017-May-13 12:29N 51°56' E 003°43'0 0.0
2017-May-13 11:59N 51°56' E 003°43'  
Track history (hours):
 
Tides and Currents Weather Stations Pressure Air Temp Water Temp Dewpoint Dewpoint Depression Visibility Wind Speed Wind Dir Waves Ship Positions

CMA CGM Homere

Last reported at 2017-May-23 11:27 UTC. Time now 2017-May-23 16:58 UTC.
Position N 36°08' W 007°30'.

Length 170 m; draft 6 m.

Type: Cargo ship. MMSI: 235052314.

Date/timePositionNaut miles runAvg speedWind from/ knotsBaromVisibWave heightAir tempDewpointWater temp
2017-May-23 11:27N 36°08' W 007°30'5 8.4
2017-May-23 10:53N 36°08' W 007°36'3 8.7
2017-May-23 10:30N 36°09' W 007°40'5 9.4
2017-May-23 10:00N 36°11' W 007°46'510.1
2017-May-23 09:30N 36°12' W 007°52'510.6
2017-May-23 09:00N 36°14' W 007°58'510.9
2017-May-23 08:30N 36°15' W 008°04'612.0
2017-May-23 08:00N 36°17' W 008°12'713.5
2017-May-23 07:30N 36°19' W 008°20'713.3
2017-May-23 07:00N 36°21' W 008°28'1213.5
2017-May-23 06:08N 36°24' W 008°42'1413.4
2017-May-23 05:07N 36°28' W 008°58'113.2
2017-May-23 05:00N 36°28' W 008°60'713.2
2017-May-23 04:27N 36°30' W 009°08'613.1
2017-May-23 03:59N 36°32' W 009°15'613.0
2017-May-23 03:30N 36°37' W 009°21'713.7
2017-May-23 03:00N 36°41' W 009°27'713.8
2017-May-23 02:30N 36°47' W 009°33'713.8
2017-May-23 02:00N 36°53' W 009°35'713.9
2017-May-23 01:31N 37°00' W 009°37'714.0
2017-May-23 01:00N 37°07' W 009°39'713.8
2017-May-23 00:30N 37°14' W 009°41'713.8
2017-May-23 00:01N 37°20' W 009°43'714.1
2017-May-22 23:30N 37°27' W 009°45'714.2
2017-May-22 23:01N 37°34' W 009°47'714.2
2017-May-22 22:31N 37°41' W 009°49'714.5
2017-May-22 22:01N 37°48' W 009°51'714.4
2017-May-22 21:30N 37°55' W 009°53'714.2
2017-May-22 21:01N 38°02' W 009°55'714.2
2017-May-22 20:30N 38°09' W 009°57'714.3
2017-May-22 20:01N 38°16' W 009°59'714.2
2017-May-22 19:31N 38°23' W 010°01'714.1
2017-May-22 19:00N 38°30' W 010°03'714.0
2017-May-22 18:30N 38°37' W 010°05'714.2
2017-May-22 18:00N 38°44' W 010°07'714.4
2017-May-22 17:31N 38°51' W 010°07'714.5
2017-May-22 17:01N 38°58' W 010°07'714.3
2017-May-22 16:30N 39°05' W 010°07'714.6
2017-May-22 16:00N 39°12' W 010°07'714.3
2017-May-22 15:30N 39°20' W 010°07'714.0
2017-May-22 14:58N 39°27' W 010°07'1414.1
2017-May-22 14:00N 39°41' W 010°07'714.1
2017-May-22 13:30N 39°48' W 010°06'714.0
2017-May-22 13:00N 39°55' W 010°06'714.0
2017-May-22 12:30N 40°02' W 010°07'714.2
2017-May-22 11:59N 40°09' W 010°07'817.5
2017-May-22 11:30N 40°18' W 010°07'918.0
2017-May-22 11:00N 40°27' W 010°07'917.7
2017-May-22 10:30N 40°35' W 010°06'714.6
2017-May-22 10:00N 40°43' W 010°07'713.1
2017-May-22 09:30N 40°49' W 010°07'713.2
2017-May-22 08:59N 40°56' W 010°07'613.1
2017-May-22 08:31N 41°02' W 010°07'1913.3
2017-May-22 07:07N 41°21' W 010°07'113.2
2017-May-22 07:00N 41°22' W 010°07'20912.6
2017-May-21 14:21N 44°46' W 009°01'17812.4
2017-May-20 23:58N 47°23' W 007°01'1313.1
2017-May-20 22:58N 47°34' W 006°51'1412.9
2017-May-20 21:54N 47°46' W 006°41'1312.8
2017-May-20 20:54N 47°57' W 006°31'1213.0
2017-May-20 19:58N 48°08' W 006°24'15411.5
2017-May-20 06:36N 49°48' W 003°26'111.4
2017-May-20 06:30N 49°48' W 003°24'611.4
2017-May-20 06:00N 49°51' W 003°17'811.3
2017-May-20 05:16N 49°55' W 003°05'311.1
2017-May-20 05:01N 49°57' W 003°02'511.0
2017-May-20 04:31N 49°59' W 002°54'610.9
2017-May-20 04:00N 50°01' W 002°46'510.8
2017-May-20 03:31N 50°02' W 002°38'8710.7
2017-May-19 19:22N 50°24' W 000°26'1113.1
2017-May-19 18:31N 50°26' W 000°09'215.0
2017-May-19 18:23N 50°27' W 000°06'615.1
2017-May-19 18:00N 50°29' E 000°02'714.9
2017-May-19 17:30N 50°31' E 000°13'714.9
2017-May-19 17:00N 50°33' E 000°25'714.6
2017-May-19 16:30N 50°35' E 000°35'814.5
2017-May-19 15:59N 50°40' E 000°45'714.3
2017-May-19 15:30N 50°43' E 000°54'714.1
2017-May-19 14:59N 50°48' E 001°04'1313.6
2017-May-19 14:00N 50°56' E 001°20'814.2
2017-May-19 13:28N 51°02' E 001°28'614.1
2017-May-19 13:00N 51°06' E 001°36'714.5
2017-May-19 12:30N 51°12' E 001°44'714.5
2017-May-19 12:00N 51°17' E 001°51'714.6
2017-May-19 11:30N 51°23' E 001°57'611.6
2017-May-19 11:00N 51°24' E 002°07'713.7
2017-May-19 10:31N 51°21' E 002°16'714.0
2017-May-19 10:00N 51°23' E 002°28'714.0
2017-May-19 09:30N 51°23' E 002°39'611.8
2017-May-19 09:00N 51°22' E 002°48'815.1
2017-May-19 08:30N 51°24' E 002°60'815.3
2017-May-19 08:01N 51°24' E 003°12'815.6
2017-May-19 07:31N 51°25' E 003°24'714.5
2017-May-19 07:00N 51°26' E 003°36'3 6.1
2017-May-19 06:30N 51°26' E 003°41'612.4
2017-May-19 06:01N 51°22' E 003°47'510.9
2017-May-19 05:30N 51°22' E 003°56'5 9.8
2017-May-19 05:00N 51°26' E 004°01'510.6
2017-May-19 04:31N 51°22' E 004°07'4 8.2
2017-May-19 04:00N 51°22' E 004°13'4 8.4
2017-May-19 03:30N 51°18' E 004°16'1 1.4
2017-May-19 02:59N 51°18' E 004°16'0 0.0
2017-May-19 02:23N 51°18' E 004°16'0 0.0
2017-May-19 01:59N 51°18' E 004°16'0 0.0
2017-May-19 01:29N 51°18' E 004°16'0 0.0
2017-May-19 00:59N 51°18' E 004°16'0 0.0
2017-May-19 00:29N 51°18' E 004°16'0 0.0
2017-May-18 23:59N 51°18' E 004°16'0 0.0
2017-May-18 23:29N 51°18' E 004°16'0 0.0
2017-May-18 22:59N 51°18' E 004°16'0 0.0
2017-May-18 22:29N 51°18' E 004°16'0 0.0
2017-May-18 21:59N 51°18' E 004°16'0 0.0
2017-May-18 21:29N 51°18' E 004°16'0 0.0
2017-May-18 20:59N 51°18' E 004°16'0 0.0
2017-May-18 20:29N 51°18' E 004°16'0 0.0
2017-May-18 19:59N 51°18' E 004°16'0 0.0
2017-May-18 19:29N 51°18' E 004°16'0 0.0
2017-May-18 18:59N 51°18' E 004°16'0 0.0
2017-May-18 18:29N 51°18' E 004°16'0 0.0
2017-May-18 17:59N 51°18' E 004°16'0 0.0
2017-May-18 17:29N 51°18' E 004°16'0 0.0
2017-May-18 16:53N 51°18' E 004°16'0 0.0
2017-May-18 16:29N 51°18' E 004°16'0 0.0
2017-May-18 15:59N 51°18' E 004°16'0 0.0
2017-May-18 15:29N 51°18' E 004°16'0 0.0
2017-May-18 14:53N 51°18' E 004°16'0 0.0
2017-May-18 13:59N 51°18' E 004°16'0 0.0
2017-May-18 13:29N 51°18' E 004°16'0 0.0
2017-May-18 12:59N 51°18' E 004°16'0 0.0
2017-May-18 12:29N 51°18' E 004°16'0 0.0
2017-May-18 12:00N 51°18' E 004°16'2 4.0
2017-May-18 11:30N 51°20' E 004°16'4 8.5
2017-May-18 11:00N 51°23' E 004°13'510.5
2017-May-18 10:30N 51°22' E 004°05'510.3
2017-May-18 10:00N 51°26' E 003°59'611.7
2017-May-18 09:30N 51°21' E 003°54'611.1
2017-May-18 09:00N 51°22' E 003°45'611.2
2017-May-18 08:31N 51°26' E 003°39'3 6.9
2017-May-18 08:00N 51°27' E 003°34'510.2
2017-May-18 07:30N 51°30' E 003°28'510.3
2017-May-18 07:00N 51°35' E 003°24'611.4
2017-May-18 06:30N 51°39' E 003°19'7 7.6
2017-May-18 05:38N 51°45' E 003°14'2 5.7
2017-May-18 05:16N 51°47' E 003°17'0 0.9
2017-May-18 04:51N 51°47' E 003°17'0 0.0
2017-May-18 04:25N 51°47' E 003°17'0 0.1
2017-May-18 03:39N 51°47' E 003°17'0 0.1
2017-May-18 03:24N 51°47' E 003°17'0 0.1
2017-May-18 02:59N 51°47' E 003°17'0 0.0
2017-May-18 02:24N 51°47' E 003°17'0 0.1
2017-May-18 02:00N 51°47' E 003°17'0 0.0
2017-May-18 01:30N 51°47' E 003°17'0 0.1
2017-May-18 00:54N 51°47' E 003°17'0 0.0
2017-May-18 00:21N 51°47' E 003°17'0 0.0
2017-May-17 23:57N 51°47' E 003°17'0 0.1
2017-May-17 23:30N 51°47' E 003°17'0 0.5
2017-May-17 22:55N 51°46' E 003°17'0 0.7
2017-May-17 22:29N 51°47' E 003°17'1210.6
2017-May-17 21:22N 51°58' E 003°21'412.3
2017-May-17 21:00N 52°03' E 003°24'611.7
2017-May-17 20:30N 52°03' E 003°33'714.7
2017-May-17 20:01N 52°03' E 003°45'611.8
2017-May-17 19:30N 52°02' E 003°54'611.9
2017-May-17 19:00N 51°59' E 004°03'1 2.8
2017-May-17 18:31N 51°58' E 004°01'2 3.7
2017-May-17 17:59N 51°57' E 003°59'0 0.3
2017-May-17 17:30N 51°57' E 003°59'0 0.0
2017-May-17 17:00N 51°57' E 003°59'0 0.0
2017-May-17 16:30N 51°57' E 003°59'0 0.0
2017-May-17 16:00N 51°57' E 003°59'0 0.0
2017-May-17 15:30N 51°57' E 003°59'0 0.0
2017-May-17 15:00N 51°57' E 003°59'0 0.0
2017-May-17 13:59N 51°57' E 003°59'0 0.0
2017-May-17 13:28N 51°57' E 003°59'0 0.0
2017-May-17 12:58N 51°57' E 003°59'0 0.0
2017-May-17 12:28N 51°57' E 003°59'0 0.0
2017-May-17 11:58N 51°57' E 003°59'0 0.0
2017-May-17 11:28N 51°57' E 003°59'0 0.0
2017-May-17 10:58N 51°57' E 003°59'0 0.0
2017-May-17 10:28N 51°57' E 003°59'0 0.0
2017-May-17 09:58N 51°57' E 003°59'0 0.0
2017-May-17 09:28N 51°57' E 003°59'0 0.0
2017-May-17 08:58N 51°57' E 003°59'0 0.0
2017-May-17 08:28N 51°57' E 003°59'0 0.0
2017-May-17 07:58N 51°57' E 003°59'0 0.0
2017-May-17 07:28N 51°57' E 003°59'0 0.0
2017-May-17 06:58N 51°57' E 003°59'0 0.0
2017-May-17 06:28N 51°57' E 003°59'0 0.0
2017-May-17 05:58N 51°57' E 003°59'0 0.0
2017-May-17 05:28N 51°57' E 003°59'0 0.0
2017-May-17 04:59N 51°57' E 003°59'0 0.0
2017-May-17 04:28N 51°57' E 003°59'0 0.0
2017-May-17 03:58N 51°57' E 003°59'0 0.0
2017-May-17 03:28N 51°57' E 003°59'0 0.0
2017-May-17 02:58N 51°57' E 003°59'0 0.0
2017-May-17 02:28N 51°57' E 003°59'0 0.0
2017-May-17 01:58N 51°57' E 003°59'0 0.0
2017-May-17 01:28N 51°57' E 003°59'0 0.0
2017-May-17 00:55N 51°57' E 003°59'0 0.0
2017-May-17 00:28N 51°57' E 003°59'0 0.0
2017-May-16 23:58N 51°57' E 003°59'0 0.0
2017-May-16 23:28N 51°57' E 003°59'0 0.0
2017-May-16 22:58N 51°57' E 003°59'0 0.0
2017-May-16 22:28N 51°57' E 003°59'0 0.0
2017-May-16 21:58N 51°57' E 003°59'0 0.0
2017-May-16 21:28N 51°57' E 003°59'0 0.0
2017-May-16 20:58N 51°57' E 003°59'0 0.3
2017-May-16 20:31N 51°57' E 003°60'2 3.7
2017-May-16 20:01N 51°59' E 004°01'2 3.9
2017-May-16 19:30N 51°59' E 004°04'4 7.5
2017-May-16 19:00N 52°00' E 003°59'611.6
2017-May-16 18:30N 52°00' E 003°49'4 8.3
2017-May-16 18:00N 51°58' E 003°44'2 3.1
2017-May-16 17:29N 51°56' E 003°43'0 0.0
2017-May-16 16:59N 51°56' E 003°43'0 0.0
2017-May-16 16:29N 51°56' E 003°43'0 0.0
2017-May-16 15:59N 51°56' E 003°43'0 0.0
2017-May-16 15:29N 51°56' E 003°43'0 0.1
2017-May-16 14:59N 51°56' E 003°43'0 0.1
2017-May-16 14:29N 51°56' E 003°43'0 0.1
2017-May-16 13:20N 51°56' E 003°43'0 0.0
2017-May-16 12:50N 51°56' E 003°43'0 0.0
2017-May-16 12:26N 51°56' E 003°43'0 0.0
2017-May-16 11:41N 51°56' E 003°43'0 0.2
2017-May-16 11:29N 51°56' E 003°43'0 0.0
2017-May-16 10:59N 51°56' E 003°43'0 0.1
2017-May-16 10:29N 51°56' E 003°43'0 0.2
2017-May-16 09:59N 51°56' E 003°43'0 0.2
2017-May-16 09:29N 51°56' E 003°43'0 0.1
2017-May-16 08:53N 51°56' E 003°43'0 0.0
2017-May-16 08:29N 51°56' E 003°43'0 0.0
2017-May-16 07:53N 51°56' E 003°43'0 0.0
2017-May-16 07:29N 51°56' E 003°43'0 0.0
2017-May-16 06:59N 51°56' E 003°43'0 0.0
2017-May-16 06:29N 51°56' E 003°43'0 0.0
2017-May-16 05:59N 51°56' E 003°43'0 0.0
2017-May-16 05:29N 51°56' E 003°43'0 0.0
2017-May-16 04:59N 51°56' E 003°43'0 0.0
2017-May-16 04:29N 51°56' E 003°43'0 0.0
2017-May-16 03:59N 51°56' E 003°43'0 0.0
2017-May-16 03:29N 51°56' E 003°43'0 0.0
2017-May-16 02:59N 51°56' E 003°43'0 0.1
2017-May-16 02:26N 51°56' E 003°43'0 0.2
2017-May-16 01:56N 51°56' E 003°43'0 0.3
2017-May-16 01:29N 51°56' E 003°43'0 0.0
2017-May-16 00:59N 51°56' E 003°43'0 0.0
2017-May-16 00:29N 51°56' E 003°43'0 0.0
2017-May-15 23:59N 51°56' E 003°43'0 0.0
2017-May-15 23:29N 51°56' E 003°43'0 0.0
2017-May-15 22:59N 51°56' E 003°43'0 0.0
2017-May-15 22:29N 51°56' E 003°43'0 0.1
2017-May-15 21:56N 51°56' E 003°43'0 0.1
2017-May-15 21:29N 51°56' E 003°43'0 0.1
2017-May-15 20:59N 51°56' E 003°43'0 0.0
2017-May-15 20:26N 51°56' E 003°43'0 0.0
2017-May-15 19:59N 51°56' E 003°43'0 0.0
2017-May-15 19:29N 51°56' E 003°43'0 0.0
2017-May-15 18:53N 51°56' E 003°43'0 0.1
2017-May-15 18:26N 51°56' E 003°43'0 0.0
2017-May-15 17:59N 51°56' E 003°43'0 0.0
2017-May-15 17:23N 51°56' E 003°43'0 0.0
2017-May-15 16:59N 51°56' E 003°43'0 0.0
2017-May-15 16:26N 51°56' E 003°43'0 0.0
2017-May-15 15:59N 51°56' E 003°43'0 0.0
2017-May-15 15:29N 51°56' E 003°43'0 0.0
2017-May-15 14:59N 51°56' E 003°43'0 0.1
2017-May-15 13:56N 51°56' E 003°43'0 0.3
2017-May-15 13:29N 51°56' E 003°43'0 0.1
2017-May-15 12:59N 51°56' E 003°43'0 0.0
2017-May-15 12:23N 51°56' E 003°43'0 0.0
2017-May-15 11:59N 51°56' E 003°43'0 0.0
2017-May-15 11:29N 51°56' E 003°43'0 0.0
2017-May-15 10:53N 51°56' E 003°43'0 0.0
2017-May-15 10:26N 51°56' E 003°43'0 0.0
2017-May-15 09:59N 51°56' E 003°43'0 0.0
2017-May-15 09:29N 51°56' E 003°43'0 0.2
2017-May-15 08:59N 51°56' E 003°43'0 0.2
2017-May-15 08:29N 51°56' E 003°43'0 0.0
2017-May-15 07:59N 51°56' E 003°43'0 0.0
2017-May-15 07:29N 51°56' E 003°43'0 0.0
2017-May-15 06:56N 51°56' E 003°43'0 0.0
2017-May-15 06:29N 51°56' E 003°43'0 0.0
2017-May-15 05:59N 51°56' E 003°43'0 0.0
2017-May-15 05:29N 51°56' E 003°43'0 0.0
2017-May-15 04:59N 51°56' E 003°43'0 0.0
2017-May-15 04:29N 51°56' E 003°43'0 0.0
2017-May-15 03:59N 51°56' E 003°43'0 0.0
2017-May-15 03:26N 51°56' E 003°43'0 0.0
2017-May-15 02:59N 51°56' E 003°43'0 0.0
2017-May-15 02:29N 51°56' E 003°43'0 0.0
2017-May-15 01:59N 51°56' E 003°43'0 0.2
2017-May-15 01:29N 51°56' E 003°43'0 0.2
2017-May-15 00:56N 51°56' E 003°43'0 0.1
2017-May-15 00:29N 51°56' E 003°43'0 0.0
2017-May-14 23:59N 51°56' E 003°43'0 0.0
2017-May-14 23:29N 51°56' E 003°43'0 0.0
2017-May-14 22:59N 51°56' E 003°43'0 0.0
2017-May-14 22:26N 51°56' E 003°43'0 0.1
2017-May-14 21:59N 51°56' E 003°43'0 0.3
2017-May-14 21:29N 51°56' E 003°43'0 0.2
2017-May-14 20:59N 51°56' E 003°43'0 0.1
2017-May-14 20:29N 51°56' E 003°43'0 0.0
2017-May-14 19:59N 51°56' E 003°43'0 0.0
2017-May-14 19:29N 51°56' E 003°43'0 0.0
2017-May-14 18:59N 51°56' E 003°43'0 0.0
2017-May-14 18:29N 51°56' E 003°43'0 0.0
2017-May-14 17:59N 51°56' E 003°43'0 0.0
2017-May-14 17:29N 51°56' E 003°43'0 0.0
2017-May-14 16:56N 51°56' E 003°43'0 0.0
2017-May-14 16:29N 51°56' E 003°43'0 0.0
2017-May-14 15:59N 51°56' E 003°43'0 0.0
2017-May-14 15:29N 51°56' E 003°43'0 0.0
2017-May-14 14:59N 51°56' E 003°43'0 0.0
2017-May-14 14:29N 51°56' E 003°43'0 0.0
2017-May-14 13:26N 51°56' E 003°43'0 0.0
2017-May-14 12:59N 51°56' E 003°43'0 0.1
2017-May-14 12:26N 51°56' E 003°43'0 0.3
2017-May-14 11:59N 51°56' E 003°43'0 0.3
2017-May-14 11:29N 51°56' E 003°43'0 0.0
2017-May-14 10:56N 51°56' E 003°43'0 0.0
2017-May-14 10:29N 51°56' E 003°43'0 0.0
2017-May-14 09:59N 51°56' E 003°43'0 0.1
2017-May-14 09:29N 51°56' E 003°43'0 0.2
2017-May-14 08:53N 51°56' E 003°43'0 0.2
2017-May-14 08:29N 51°56' E 003°43'0 0.0
2017-May-14 07:56N 51°56' E 003°43'0 0.0
2017-May-14 07:29N 51°56' E 003°43'0 0.0
2017-May-14 06:59N 51°56' E 003°43'0 0.0
2017-May-14 06:17N 51°56' E 003°43'0 0.0
2017-May-14 05:59N 51°56' E 003°43'0 0.0
2017-May-14 05:26N 51°56' E 003°43'0 0.0
2017-May-14 04:56N 51°56' E 003°43'0 0.0
2017-May-14 04:29N 51°56' E 003°43'0 0.0
2017-May-14 03:56N 51°56' E 003°43'0 0.0
2017-May-14 03:29N 51°56' E 003°43'0 0.0
2017-May-14 02:53N 51°56' E 003°43'0 0.0
2017-May-14 02:29N 51°56' E 003°43'0 0.0
2017-May-14 01:59N 51°56' E 003°43'0 0.1
2017-May-14 01:29N 51°56' E 003°43'0 0.3
2017-May-14 00:56N 51°56' E 003°43'0 0.1
2017-May-14 00:29N 51°56' E 003°43'0 0.0
2017-May-13 23:56N 51°56' E 003°43'0 0.0
2017-May-13 23:26N 51°56' E 003°43'0 0.1
2017-May-13 22:56N 51°56' E 003°43'0 0.0
2017-May-13 22:29N 51°56' E 003°43'0 0.0
2017-May-13 21:59N 51°56' E 003°43'0 0.1
2017-May-13 21:29N 51°56' E 003°43'0 0.2
2017-May-13 20:59N 51°56' E 003°43'0 0.2
2017-May-13 20:26N 51°56' E 003°43'0 0.1
2017-May-13 19:59N 51°56' E 003°43'0 0.0
2017-May-13 19:29N 51°56' E 003°43'0 0.0
2017-May-13 18:59N 51°56' E 003°43'0 0.0
2017-May-13 18:29N 51°56' E 003°43'0 0.0
2017-May-13 17:56N 51°56' E 003°43'0 0.0
2017-May-13 17:29N 51°56' E 003°43'0 0.0
2017-May-13 16:59N 51°56' E 003°43'0 0.0
2017-May-13 16:29N 51°56' E 003°43'0 0.0
2017-May-13 15:59N 51°56' E 003°43'0 0.0
2017-May-13 15:29N 51°56' E 003°43'0 0.0
2017-May-13 14:59N 51°56' E 003°43'0 0.0
2017-May-13 14:29N 51°56' E 003°43'0 0.0
2017-May-13 13:29N 51°56' E 003°43'0 0.3
2017-May-13 12:56N 51°56' E 003°43'0 0.2
2017-May-13 12:29N 51°56' E 003°43'0 0.0
2017-May-13 11:59N 51°56' E 003°43'  

Dump ship's entire track history